createdAt,value
2022-10-04T00:00:46.978Z,101557.25
2022-10-04T00:03:20.347Z,101571.03
2022-10-04T00:05:50.095Z,101565.94
2022-10-04T00:08:26.278Z,101563.28
2022-10-04T00:11:03.689Z,101572.94
2022-10-04T00:13:31.839Z,101566.31
2022-10-04T00:15:59.802Z,101574.50
2022-10-04T00:18:32.761Z,101571.56
2022-10-04T00:21:03.621Z,101581.53
2022-10-04T00:23:43.448Z,101580.47
2022-10-04T00:26:31.324Z,101580.28
2022-10-04T00:28:59.117Z,101573.88
2022-10-04T00:31:27.926Z,101580.19
2022-10-04T00:34:20.872Z,101575.72
2022-10-04T00:36:52.663Z,101573.16
2022-10-04T00:39:42.976Z,101582.44
2022-10-04T00:42:42.287Z,101580.16
2022-10-04T00:45:15.924Z,101589.19
2022-10-04T00:48:21.946Z,101581.47
2022-10-04T00:50:54.979Z,101579.72
2022-10-04T00:53:35.382Z,101577.75
2022-10-04T00:56:05.034Z,101574.28
2022-10-04T00:58:35.905Z,101577.56
2022-10-04T01:01:04.432Z,101571.31
2022-10-04T01:03:35.518Z,101577.41
2022-10-04T01:06:06.538Z,101576.31
2022-10-04T01:08:36.200Z,101577.28
2022-10-04T01:11:07.280Z,101576.19
2022-10-04T01:13:39.875Z,101562.53
2022-10-04T01:16:14.951Z,101558.88
2022-10-04T01:18:42.819Z,101567.22
2022-10-04T01:21:24.775Z,101566.44
2022-10-04T01:23:55.642Z,101555.84
2022-10-04T01:26:38.566Z,101568.56
2022-10-04T01:29:10.374Z,101571.19
2022-10-04T01:31:40.966Z,101557.81
2022-10-04T01:34:09.358Z,101560.34
2022-10-04T01:36:38.067Z,101564.03
2022-10-04T01:39:07.944Z,101558.47
2022-10-04T01:41:44.758Z,101555.50
2022-10-04T01:44:20.059Z,101552.59
2022-10-04T01:46:48.098Z,101551.13
2022-10-04T01:49:19.232Z,101552.78
2022-10-04T01:51:54.399Z,101557.44
2022-10-04T01:54:32.050Z,101551.63
2022-10-04T01:57:03.236Z,101556.41
2022-10-04T01:59:34.717Z,101548.28
2022-10-04T02:02:05.366Z,101547.63
2022-10-04T02:04:34.710Z,101544.63
2022-10-04T02:07:03.360Z,101538.28
2022-10-04T02:09:35.150Z,101540.69
2022-10-04T02:12:03.731Z,101537.97
2022-10-04T02:14:36.910Z,101543.41
2022-10-04T02:17:10.385Z,101534.16
2022-10-04T02:19:40.733Z,101531.72
2022-10-04T02:22:10.060Z,101535.38
2022-10-04T02:24:42.838Z,101541.28
2022-10-04T02:27:10.675Z,101541.38
2022-10-04T02:29:38.425Z,101544.69
2022-10-04T02:32:24.105Z,101540.66
2022-10-04T02:34:52.377Z,101542.44
2022-10-04T02:37:20.185Z,101548.09
2022-10-04T02:39:51.341Z,101537.69
2022-10-04T02:42:24.052Z,101550.94
2022-10-04T02:44:56.492Z,101544.97
2022-10-04T02:47:29.335Z,101541.53
2022-10-04T02:50:00.481Z,101539.22
2022-10-04T02:52:32.619Z,101540.44
2022-10-04T02:55:04.559Z,101536.00
2022-10-04T02:57:34.450Z,101538.19
2022-10-04T03:00:11.772Z,101530.06
2022-10-04T03:02:40.565Z,101531.16
2022-10-04T03:05:10.637Z,101531.50
2022-10-04T03:07:39.486Z,101539.44
2022-10-04T03:10:11.991Z,101540.47
2022-10-04T03:12:40.258Z,101533.75
2022-10-04T03:15:09.520Z,101528.84
2022-10-04T03:17:37.422Z,101529.22
2022-10-04T03:20:06.032Z,101531.13
2022-10-04T03:22:33.787Z,101531.88
2022-10-04T03:25:01.595Z,101538.03
2022-10-04T03:27:33.159Z,101523.28
2022-10-04T03:30:01.867Z,101525.47
2022-10-04T03:32:30.434Z,101535.94
2022-10-04T03:34:59.763Z,101532.06
2022-10-04T03:37:28.667Z,101544.91
2022-10-04T03:39:57.297Z,101533.84
2022-10-04T03:42:27.341Z,101538.97
2022-10-04T03:45:01.008Z,101536.97
2022-10-04T03:47:32.526Z,101541.97
2022-10-04T03:50:04.551Z,101543.81
2022-10-04T03:52:34.120Z,101538.47
2022-10-04T03:55:04.071Z,101539.16
2022-10-04T03:57:32.396Z,101535.72
2022-10-04T04:00:02.493Z,101537.31
2022-10-04T04:02:46.029Z,101534.69
2022-10-04T04:05:19.933Z,101539.88
2022-10-04T04:07:51.058Z,101536.94
2022-10-04T04:10:22.738Z,101541.81
2022-10-04T04:12:57.400Z,101543.63
2022-10-04T04:15:29.721Z,101537.44
2022-10-04T04:18:00.070Z,101545.72
2022-10-04T04:20:31.316Z,101548.09
2022-10-04T04:23:02.180Z,101550.69
2022-10-04T04:25:32.279Z,101553.25
2022-10-04T04:28:04.487Z,101551.72
2022-10-04T04:30:35.446Z,101554.50
2022-10-04T04:33:08.982Z,101553.56
2022-10-04T04:35:37.345Z,101551.31
2022-10-04T04:38:15.641Z,101549.31
2022-10-04T04:40:43.832Z,101554.13
2022-10-04T04:43:15.538Z,101550.63
2022-10-04T04:45:44.918Z,101552.38
2022-10-04T04:48:14.906Z,101553.00
2022-10-04T04:50:43.058Z,101542.09
2022-10-04T04:53:15.690Z,101546.56
2022-10-04T04:56:02.693Z,101544.50
2022-10-04T04:58:35.311Z,101541.59
2022-10-04T05:01:07.945Z,101550.44
2022-10-04T05:03:35.690Z,101553.63
2022-10-04T05:06:05.096Z,101559.75
2022-10-04T05:08:40.163Z,101555.41
2022-10-04T05:11:16.064Z,101556.47
2022-10-04T05:13:45.594Z,101554.41
2022-10-04T05:16:18.215Z,101563.19
2022-10-04T05:18:46.416Z,101555.25
2022-10-04T05:21:16.456Z,101559.38
2022-10-04T05:23:44.273Z,101561.06
2022-10-04T05:26:13.015Z,101553.94
2022-10-04T05:28:40.769Z,101563.38
2022-10-04T05:31:31.003Z,101558.44
2022-10-04T05:33:59.863Z,101560.66
2022-10-04T05:36:55.503Z,101562.28
2022-10-04T05:39:27.774Z,101560.25
2022-10-04T05:42:00.277Z,101555.88
2022-10-04T05:44:30.189Z,101557.41
2022-10-04T05:47:00.970Z,101556.75
2022-10-04T05:49:31.439Z,101565.75
2022-10-04T05:52:01.736Z,101574.47
2022-10-04T05:54:31.106Z,101569.56
2022-10-04T05:57:12.888Z,101579.16
2022-10-04T05:59:52.444Z,101582.44
2022-10-04T06:02:31.974Z,101574.34
2022-10-04T06:05:10.432Z,101576.53
2022-10-04T06:07:42.077Z,101585.53
2022-10-04T06:10:26.217Z,101575.06
2022-10-04T06:12:57.364Z,101580.06
2022-10-04T06:15:36.556Z,101580.50
2022-10-04T06:18:20.180Z,101585.19
2022-10-04T06:21:24.959Z,101582.44
2022-10-04T06:23:57.705Z,101580.28
2022-10-04T06:26:29.259Z,101580.50
2022-10-04T06:29:00.105Z,101590.53
2022-10-04T06:31:57.374Z,101588.38
2022-10-04T06:34:51.921Z,101590.41
2022-10-04T06:37:34.152Z,101590.19
2022-10-04T06:40:37.213Z,101592.41
2022-10-04T06:43:23.450Z,101600.00
2022-10-04T06:46:08.748Z,101605.28
2022-10-04T06:49:20.863Z,101604.47
2022-10-04T06:52:18.312Z,101615.19
2022-10-04T06:55:00.212Z,101610.22
2022-10-04T06:57:51.466Z,101610.44
2022-10-04T07:00:22.166Z,101613.50
2022-10-04T07:02:52.966Z,101611.97
2022-10-04T07:05:30.463Z,101611.03
2022-10-04T07:08:07.523Z,101611.25
2022-10-04T07:10:48.266Z,101615.97
2022-10-04T07:13:33.226Z,101618.56
2022-10-04T07:16:04.621Z,101609.63
2022-10-04T07:18:36.064Z,101615.19
2022-10-04T07:21:07.089Z,101619.38
2022-10-04T07:23:39.240Z,101614.94
2022-10-04T07:26:14.433Z,101626.69
2022-10-04T07:29:01.557Z,101623.28
2022-10-04T07:31:30.722Z,101624.59
2022-10-04T07:34:02.235Z,101630.97
2022-10-04T07:36:33.067Z,101637.59
2022-10-04T07:39:07.970Z,101631.59
2022-10-04T07:41:39.004Z,101637.63
2022-10-04T07:44:16.021Z,101638.56
2022-10-04T07:46:52.777Z,101641.78
2022-10-04T07:49:21.801Z,101639.06
2022-10-04T07:52:17.085Z,101648.06
2022-10-04T07:54:48.882Z,101648.66
2022-10-04T07:57:22.043Z,101648.09
2022-10-04T07:59:55.570Z,101652.78
2022-10-04T08:02:31.414Z,101648.66
2022-10-04T08:05:06.964Z,101651.59
2022-10-04T08:07:46.904Z,101649.03
2022-10-04T08:10:22.668Z,101650.50
2022-10-04T08:12:53.643Z,101660.56
2022-10-04T08:15:34.915Z,101657.38
2022-10-04T08:18:19.489Z,101670.63
2022-10-04T08:20:49.336Z,101660.94
2022-10-04T08:23:40.935Z,101667.19
2022-10-04T08:26:18.328Z,101668.84
2022-10-04T08:29:09.096Z,101677.09
2022-10-04T08:31:54.042Z,101676.09
2022-10-04T08:34:34.650Z,101671.09
2022-10-04T08:37:10.144Z,101666.13
2022-10-04T08:39:50.293Z,101670.94
2022-10-04T08:42:34.667Z,101676.75
2022-10-04T08:45:20.760Z,101669.19
2022-10-04T08:48:18.300Z,101667.69
2022-10-04T08:51:23.170Z,101673.00
2022-10-04T08:54:21.344Z,101667.03
2022-10-04T08:57:16.563Z,101670.38
2022-10-04T09:00:17.590Z,101679.25
2022-10-04T09:03:08.560Z,101674.03
2022-10-04T09:05:53.428Z,101663.00
2022-10-04T09:08:48.720Z,101669.44
2022-10-04T09:11:36.133Z,101661.97
2022-10-04T09:14:21.121Z,101657.72
2022-10-04T09:16:55.192Z,101670.44
2022-10-04T09:19:23.556Z,101659.63
2022-10-04T09:22:10.466Z,101673.63
2022-10-04T09:25:16.570Z,101662.16
2022-10-04T09:28:13.745Z,101665.25
2022-10-04T09:30:52.965Z,101676.84
2022-10-04T09:33:41.942Z,101674.59
2022-10-04T09:36:29.189Z,101674.88
2022-10-04T09:39:31.262Z,101676.09
2022-10-04T09:42:42.275Z,101668.09
2022-10-04T09:45:25.258Z,101670.75
2022-10-04T09:48:03.337Z,101676.34
2022-10-04T09:50:47.204Z,101670.13
2022-10-04T09:53:29.260Z,101667.03
2022-10-04T09:56:09.183Z,101674.88
2022-10-04T09:58:48.988Z,101665.06
2022-10-04T10:01:23.168Z,101659.94
2022-10-04T10:04:22.547Z,101655.31
2022-10-04T10:07:06.334Z,101660.16
2022-10-04T10:09:57.795Z,101652.53
2022-10-04T10:12:54.808Z,101658.72
2022-10-04T10:15:28.377Z,101657.03
2022-10-04T10:18:01.158Z,101659.09
2022-10-04T10:20:55.288Z,101655.09
2022-10-04T10:23:51.490Z,101663.38
2022-10-04T10:26:32.078Z,101670.88
2022-10-04T10:29:41.947Z,101659.63
2022-10-04T10:32:26.606Z,101669.56
2022-10-04T10:35:25.279Z,101668.78
2022-10-04T10:38:08.096Z,101667.03
2022-10-04T10:40:43.940Z,101662.09
2022-10-04T10:43:23.331Z,101668.03
2022-10-04T10:46:02.001Z,101671.56
2022-10-04T10:48:41.985Z,101656.44
2022-10-04T10:51:12.272Z,101669.16
2022-10-04T10:54:06.283Z,101663.16
2022-10-04T10:56:49.036Z,101659.19
2022-10-04T11:00:02.231Z,101653.75
2022-10-04T11:03:13.358Z,101655.81
2022-10-04T11:06:21.794Z,101654.31
2022-10-04T11:09:29.733Z,101651.16
2022-10-04T11:12:28.188Z,101659.09
2022-10-04T11:15:25.869Z,101660.50
2022-10-04T11:18:17.162Z,101656.97
2022-10-04T11:21:09.523Z,101662.59
2022-10-04T11:24:19.752Z,101655.38
2022-10-04T11:27:02.051Z,101660.09
2022-10-04T11:29:43.073Z,101659.91
2022-10-04T11:32:32.524Z,101662.31
2022-10-04T11:35:36.930Z,101652.28
2022-10-04T11:38:12.045Z,101641.59
2022-10-04T11:40:50.519Z,101645.69
2022-10-04T11:43:35.977Z,101639.63
2022-10-04T11:46:22.496Z,101631.81
2022-10-04T11:49:00.295Z,101630.28
2022-10-04T11:52:02.156Z,101627.41
2022-10-04T11:54:55.125Z,101635.72
2022-10-04T11:57:32.424Z,101621.34
2022-10-04T12:00:05.891Z,101629.59
2022-10-04T12:03:24.624Z,101623.63
2022-10-04T12:06:13.664Z,101623.25
2022-10-04T12:08:53.534Z,101625.78
2022-10-04T12:11:49.833Z,101612.38
2022-10-04T12:14:26.372Z,101611.19
2022-10-04T12:17:25.089Z,101624.50
2022-10-04T12:20:03.132Z,101619.91
2022-10-04T12:23:01.280Z,101615.97
2022-10-04T12:26:19.397Z,101605.75
2022-10-04T12:29:05.110Z,101608.06
2022-10-04T12:31:33.682Z,101601.88
2022-10-04T12:34:10.105Z,101603.38
2022-10-04T12:36:52.002Z,101601.53
2022-10-04T12:39:31.400Z,101605.25
2022-10-04T12:42:10.367Z,101607.72
2022-10-04T12:44:50.251Z,101613.56
2022-10-04T12:47:40.250Z,101601.84
2022-10-04T12:50:17.565Z,101601.69
2022-10-04T12:52:54.139Z,101598.38
2022-10-04T12:55:39.175Z,101596.97
2022-10-04T12:58:09.134Z,101602.19
2022-10-04T13:00:39.797Z,101596.72
2022-10-04T13:03:19.997Z,101599.91
2022-10-04T13:06:02.965Z,101599.75
2022-10-04T13:08:41.651Z,101605.38
2022-10-04T13:11:51.248Z,101601.81
2022-10-04T13:14:41.372Z,101594.59
2022-10-04T13:17:27.565Z,101592.13
2022-10-04T13:20:04.876Z,101581.28
2022-10-04T13:23:02.036Z,101581.53
2022-10-04T13:26:04.175Z,101582.78
2022-10-04T13:28:39.384Z,101574.06
2022-10-04T13:31:10.100Z,101563.25
2022-10-04T13:33:43.494Z,101569.28
2022-10-04T13:36:16.773Z,101566.72
2022-10-04T13:38:57.455Z,101570.00
2022-10-04T13:41:33.986Z,101565.59
2022-10-04T13:44:21.455Z,101559.59
2022-10-04T13:47:21.114Z,101555.38
2022-10-04T13:50:02.204Z,101550.50
2022-10-04T13:52:58.067Z,101553.69
2022-10-04T13:55:49.554Z,101545.50
2022-10-04T13:58:30.077Z,101535.25
2022-10-04T14:01:32.079Z,101532.31
2022-10-04T14:04:11.484Z,101538.44
2022-10-04T14:07:06.798Z,101528.72
2022-10-04T14:09:46.967Z,101530.38
2022-10-04T14:12:41.596Z,101529.84
2022-10-04T14:15:39.176Z,101528.78
2022-10-04T14:18:49.077Z,101518.75
2022-10-04T14:21:56.389Z,101517.13
2022-10-04T14:24:45.853Z,101522.63
2022-10-04T14:27:51.899Z,101521.16
2022-10-04T14:30:24.546Z,101519.34
2022-10-04T14:33:05.445Z,101517.19
2022-10-04T14:35:35.913Z,101505.19
2022-10-04T14:38:25.917Z,101506.00
2022-10-04T14:41:41.184Z,101510.13
2022-10-04T14:44:45.740Z,101514.41
2022-10-04T14:47:26.362Z,101504.50
2022-10-04T14:50:05.135Z,101501.06
2022-10-04T14:52:42.366Z,101501.16
2022-10-04T14:55:26.058Z,101495.28
2022-10-04T14:58:06.366Z,101496.53
2022-10-04T15:00:54.877Z,101492.34
2022-10-04T15:03:33.056Z,101489.31
2022-10-04T15:06:09.336Z,101488.53
2022-10-04T15:09:13.109Z,101481.66
2022-10-04T15:11:57.523Z,101482.16
2022-10-04T15:14:39.356Z,101485.41
2022-10-04T15:17:11.758Z,101468.97
2022-10-04T15:19:59.044Z,101469.50
2022-10-04T15:22:29.594Z,101475.22
2022-10-04T15:24:59.473Z,101478.69
2022-10-04T15:27:52.968Z,101474.72
2022-10-04T15:30:37.268Z,101472.69
2022-10-04T15:33:27.519Z,101475.13
2022-10-04T15:36:16.776Z,101477.22
2022-10-04T15:38:51.561Z,101478.56
2022-10-04T15:41:25.859Z,101483.38
2022-10-04T15:44:16.872Z,101484.56
2022-10-04T15:46:47.909Z,101485.53
2022-10-04T15:49:32.941Z,101488.41
2022-10-04T15:52:11.917Z,101495.91
2022-10-04T15:55:13.821Z,101496.50
2022-10-04T15:58:16.883Z,101498.56
2022-10-04T16:01:02.015Z,101492.19
2022-10-04T16:03:41.134Z,101488.91
2022-10-04T16:06:11.670Z,101484.09
2022-10-04T16:08:50.414Z,101474.75
2022-10-04T16:11:31.111Z,101482.19
2022-10-04T16:14:37.975Z,101482.75
2022-10-04T16:17:19.107Z,101484.94
2022-10-04T16:20:03.557Z,101476.63
2022-10-04T16:22:32.550Z,101478.66
2022-10-04T16:25:01.479Z,101471.75
2022-10-04T16:27:51.295Z,101479.84
2022-10-04T16:30:32.268Z,101472.28
2022-10-04T16:33:16.137Z,101467.59
2022-10-04T16:35:46.916Z,101459.47
2022-10-04T16:38:24.083Z,101452.97
2022-10-04T16:41:08.093Z,101454.13
2022-10-04T16:43:38.659Z,101465.81
2022-10-04T16:46:23.076Z,101461.88
2022-10-04T16:48:56.049Z,101477.41
2022-10-04T16:52:09.621Z,101474.34
2022-10-04T16:55:02.592Z,101479.78
2022-10-04T16:57:30.437Z,101484.47
2022-10-04T17:00:00.562Z,101496.44
2022-10-04T17:02:46.047Z,101496.00
2022-10-04T17:05:50.246Z,101500.13
2022-10-04T17:08:41.761Z,101494.47
2022-10-04T17:11:44.778Z,101499.16
2022-10-04T17:14:49.324Z,101505.72
2022-10-04T17:17:24.222Z,101511.94
2022-10-04T17:19:55.574Z,101499.16
2022-10-04T17:22:33.366Z,101509.44
2022-10-04T17:25:06.857Z,101503.22
2022-10-04T17:27:46.497Z,101500.31
2022-10-04T17:30:21.402Z,101506.13
2022-10-04T17:33:17.029Z,101510.19
2022-10-04T17:36:09.224Z,101510.41
2022-10-04T17:38:43.807Z,101500.31
2022-10-04T17:41:18.342Z,101496.31
2022-10-04T17:44:07.617Z,101501.53
2022-10-04T17:46:40.881Z,101503.97
2022-10-04T17:49:30.707Z,101516.66
2022-10-04T17:52:21.179Z,101501.03
2022-10-04T17:55:09.703Z,101484.81
2022-10-04T17:57:42.776Z,101484.72
2022-10-04T18:00:13.000Z,101485.50
2022-10-04T18:02:59.601Z,101493.88
2022-10-04T18:05:31.066Z,101499.78
2022-10-04T18:08:03.888Z,101493.13
2022-10-04T18:10:34.570Z,101485.72
2022-10-04T18:13:05.338Z,101483.06
2022-10-04T18:15:36.799Z,101471.06
2022-10-04T18:18:19.629Z,101482.00
2022-10-04T18:21:06.122Z,101495.91
2022-10-04T18:23:39.119Z,101493.19
2022-10-04T18:26:12.337Z,101484.75
2022-10-04T18:28:40.121Z,101497.97
2022-10-04T18:31:21.639Z,101494.41
2022-10-04T18:33:50.942Z,101490.50
2022-10-04T18:36:22.247Z,101490.81
2022-10-04T18:39:04.472Z,101486.09
2022-10-04T18:41:46.260Z,101487.53
2022-10-04T18:44:15.788Z,101475.78
2022-10-04T18:46:48.238Z,101469.91
2022-10-04T18:49:18.028Z,101467.88
2022-10-04T18:51:55.285Z,101464.63
2022-10-04T18:54:30.768Z,101472.47
2022-10-04T18:57:15.294Z,101462.56
2022-10-04T19:00:08.467Z,101470.72
2022-10-04T19:02:40.216Z,101481.38
2022-10-04T19:05:14.134Z,101483.72
2022-10-04T19:07:46.686Z,101485.50
2022-10-04T19:10:24.333Z,101492.63
2022-10-04T19:12:59.635Z,101484.31
2022-10-04T19:15:41.742Z,101489.28
2022-10-04T19:18:23.016Z,101476.84
2022-10-04T19:20:55.864Z,101482.06
2022-10-04T19:23:29.192Z,101474.66
2022-10-04T19:26:29.840Z,101477.94
2022-10-04T19:28:52.812Z,101483.84
2022-10-04T19:31:26.204Z,101484.91
2022-10-04T19:33:58.640Z,101484.97
2022-10-04T19:36:45.230Z,101483.97
2022-10-04T19:39:26.392Z,101494.41
2022-10-04T19:41:59.267Z,101495.13
2022-10-04T19:44:36.887Z,101486.31
2022-10-04T19:47:10.388Z,101495.03
2022-10-04T19:49:44.543Z,101493.47
2022-10-04T19:52:22.335Z,101502.38
2022-10-04T19:54:54.428Z,101497.16
2022-10-04T19:57:33.021Z,101494.38
2022-10-04T20:00:01.324Z,101503.28
2022-10-04T20:02:43.521Z,101501.66
2022-10-04T20:05:15.244Z,101505.31
2022-10-04T20:07:49.438Z,101495.03
2022-10-04T20:10:24.958Z,101503.25
2022-10-04T20:13:24.065Z,101488.50
2022-10-04T20:16:00.605Z,101484.72
2022-10-04T20:18:53.288Z,101488.25
2022-10-04T20:21:28.607Z,101501.50
2022-10-04T20:24:00.620Z,101498.91
2022-10-04T20:26:54.832Z,101493.81
2022-10-04T20:30:06.339Z,101497.75
2022-10-04T20:32:56.831Z,101500.28
2022-10-04T20:36:08.324Z,101497.22
2022-10-04T20:39:03.090Z,101478.91
2022-10-04T20:42:02.489Z,101481.69
2022-10-04T20:44:45.553Z,101476.97
2022-10-04T20:47:46.309Z,101476.41
2022-10-04T20:50:35.731Z,101479.19
2022-10-04T20:53:07.006Z,101488.28
2022-10-04T20:55:36.671Z,101471.44
2022-10-04T20:58:06.122Z,101480.09
2022-10-04T21:00:35.287Z,101477.38
2022-10-04T21:03:18.439Z,101474.47
2022-10-04T21:05:52.503Z,101483.88
2022-10-04T21:08:25.639Z,101476.50
2022-10-04T21:11:06.750Z,101474.72
2022-10-04T21:13:48.671Z,101469.84
2022-10-04T21:16:34.993Z,101467.03
2022-10-04T21:19:50.258Z,101474.94
2022-10-04T21:22:39.102Z,101488.50
2022-10-04T21:25:29.090Z,101483.44
2022-10-04T21:28:23.303Z,101481.88
2022-10-04T21:30:51.148Z,101476.44
2022-10-04T21:33:18.905Z,101468.59
2022-10-04T21:35:46.704Z,101465.78
2022-10-04T21:38:15.774Z,101451.38
2022-10-04T21:40:43.531Z,101440.19
2022-10-04T21:43:11.366Z,101442.56
2022-10-04T21:45:39.234Z,101439.16
2022-10-04T21:48:06.965Z,101439.06
2022-10-04T21:50:34.784Z,101437.19
2022-10-04T21:53:02.466Z,101433.56
2022-10-04T21:55:31.570Z,101430.13
2022-10-04T21:57:59.368Z,101435.31
2022-10-04T22:00:27.182Z,101428.75
2022-10-04T22:02:54.976Z,101434.22
2022-10-04T22:05:22.727Z,101431.66
2022-10-04T22:07:50.499Z,101440.72
2022-10-04T22:10:18.491Z,101434.59
2022-10-04T22:12:47.529Z,101430.00
2022-10-04T22:15:15.264Z,101419.47
2022-10-04T22:17:42.968Z,101423.09
2022-10-04T22:20:10.973Z,101408.50
2022-10-04T22:22:39.986Z,101418.84
2022-10-04T22:25:15.155Z,101421.72
2022-10-04T22:27:42.971Z,101417.25
2022-10-04T22:30:22.440Z,101410.03
2022-10-04T22:32:50.641Z,101408.16
2022-10-04T22:35:21.213Z,101398.22
2022-10-04T22:37:49.680Z,101404.63
2022-10-04T22:40:20.294Z,101401.56
2022-10-04T22:42:51.869Z,101405.41
2022-10-04T22:45:24.173Z,101394.53
2022-10-04T22:47:52.389Z,101389.22
2022-10-04T22:50:38.373Z,101392.50
2022-10-04T22:53:12.966Z,101386.81
2022-10-04T22:55:41.389Z,101381.72
2022-10-04T22:58:12.352Z,101376.38
2022-10-04T23:00:41.927Z,101368.31
2022-10-04T23:03:20.073Z,101372.41
2022-10-04T23:05:48.127Z,101375.34
2022-10-04T23:08:17.812Z,101373.53
2022-10-04T23:10:46.274Z,101383.44
2022-10-04T23:13:17.803Z,101379.47
2022-10-04T23:15:48.559Z,101377.41
2022-10-04T23:18:20.050Z,101378.28
2022-10-04T23:20:57.899Z,101375.97
2022-10-04T23:23:26.339Z,101384.81
2022-10-04T23:25:54.968Z,101379.47
2022-10-04T23:28:23.425Z,101376.88
2022-10-04T23:31:05.831Z,101376.16
2022-10-04T23:33:33.937Z,101370.47
2022-10-04T23:36:01.959Z,101369.56
2022-10-04T23:38:30.524Z,101372.38
2022-10-04T23:40:58.363Z,101356.81
2022-10-04T23:43:26.887Z,101357.44
2022-10-04T23:45:57.315Z,101345.97
2022-10-04T23:48:26.920Z,101355.44
2022-10-04T23:50:59.714Z,101366.09
2022-10-04T23:53:29.029Z,101364.16
2022-10-04T23:55:57.431Z,101364.16
2022-10-04T23:58:28.291Z,101373.47
